sensor_id;sensor_type;location;lat;lon;timestamp;P1;durP1;ratioP1;P2;durP2;ratioP2
13425;SDS011;6785;57.918;12.530;2022-10-22T00:02:16;18.47;;;12.47;;
13425;SDS011;6785;57.918;12.530;2022-10-22T00:04:44;16.67;;;12.90;;
13425;SDS011;6785;57.918;12.530;2022-10-22T00:07:11;15.27;;;11.67;;
13425;SDS011;6785;57.918;12.530;2022-10-22T00:09:39;18.00;;;12.83;;
13425;SDS011;6785;57.918;12.530;2022-10-22T00:12:07;20.83;;;12.13;;
13425;SDS011;6785;57.918;12.530;2022-10-22T00:14:35;20.67;;;12.73;;
13425;SDS011;6785;57.918;12.530;2022-10-22T00:17:02;15.33;;;12.97;;
13425;SDS011;6785;57.918;12.530;2022-10-22T00:19:29;21.10;;;12.53;;
13425;SDS011;6785;57.918;12.530;2022-10-22T00:21:56;15.27;;;11.80;;
13425;SDS011;6785;57.918;12.530;2022-10-22T00:24:24;17.57;;;12.13;;
13425;SDS011;6785;57.918;12.530;2022-10-22T00:26:51;22.00;;;11.77;;
13425;SDS011;6785;57.918;12.530;2022-10-22T00:29:20;21.10;;;13.27;;
13425;SDS011;6785;57.918;12.530;2022-10-22T00:31:47;17.10;;;12.10;;
13425;SDS011;6785;57.918;12.530;2022-10-22T00:34:15;17.77;;;12.27;;
13425;SDS011;6785;57.918;12.530;2022-10-22T00:36:44;18.87;;;11.90;;
13425;SDS011;6785;57.918;12.530;2022-10-22T00:39:11;16.07;;;11.97;;
13425;SDS011;6785;57.918;12.530;2022-10-22T00:41:40;20.57;;;13.90;;
13425;SDS011;6785;57.918;12.530;2022-10-22T00:47:29;14.83;;;11.93;;
13425;SDS011;6785;57.918;12.530;2022-10-22T00:50:00;19.17;;;11.67;;
13425;SDS011;6785;57.918;12.530;2022-10-22T00:52:30;18.20;;;11.67;;
13425;SDS011;6785;57.918;12.530;2022-10-22T00:54:57;18.00;;;12.40;;
13425;SDS011;6785;57.918;12.530;2022-10-22T00:57:26;22.43;;;12.73;;
13425;SDS011;6785;57.918;12.530;2022-10-22T00:59:53;16.43;;;11.23;;
13425;SDS011;6785;57.918;12.530;2022-10-22T01:02:24;15.17;;;11.60;;
13425;SDS011;6785;57.918;12.530;2022-10-22T01:04:51;16.13;;;11.27;;
13425;SDS011;6785;57.918;12.530;2022-10-22T01:07:19;14.17;;;11.37;;
13425;SDS011;6785;57.918;12.530;2022-10-22T01:09:51;16.37;;;11.90;;
13425;SDS011;6785;57.918;12.530;2022-10-22T01:12:34;16.20;;;12.03;;
13425;SDS011;6785;57.918;12.530;2022-10-22T01:15:17;15.87;;;11.17;;
13425;SDS011;6785;57.918;12.530;2022-10-22T01:17:58;17.53;;;11.77;;
13425;SDS011;6785;57.918;12.530;2022-10-22T01:20:40;15.93;;;12.07;;
13425;SDS011;6785;57.918;12.530;2022-10-22T01:23:31;17.00;;;11.87;;
13425;SDS011;6785;57.918;12.530;2022-10-22T01:26:34;16.97;;;11.40;;
13425;SDS011;6785;57.918;12.530;2022-10-22T01:29:20;17.43;;;11.50;;
13425;SDS011;6785;57.918;12.530;2022-10-22T01:31:53;14.77;;;11.30;;
13425;SDS011;6785;57.918;12.530;2022-10-22T01:34:25;24.10;;;11.30;;
13425;SDS011;6785;57.918;12.530;2022-10-22T01:36:56;20.40;;;11.80;;
13425;SDS011;6785;57.918;12.530;2022-10-22T01:39:25;17.17;;;12.67;;
13425;SDS011;6785;57.918;12.530;2022-10-22T01:41:56;17.73;;;12.57;;
13425;SDS011;6785;57.918;12.530;2022-10-22T01:44:25;19.83;;;11.60;;
13425;SDS011;6785;57.918;12.530;2022-10-22T01:46:57;16.17;;;11.20;;
13425;SDS011;6785;57.918;12.530;2022-10-22T01:49:49;22.43;;;11.93;;
13425;SDS011;6785;57.918;12.530;2022-10-22T01:52:55;20.60;;;12.27;;
13425;SDS011;6785;57.918;12.530;2022-10-22T01:55:44;20.03;;;11.70;;
13425;SDS011;6785;57.918;12.530;2022-10-22T01:58:30;17.10;;;11.83;;
13425;SDS011;6785;57.918;12.530;2022-10-22T02:01:12;17.33;;;10.73;;
13425;SDS011;6785;57.918;12.530;2022-10-22T02:03:50;18.43;;;12.07;;
13425;SDS011;6785;57.918;12.530;2022-10-22T02:06:27;17.47;;;11.60;;
13425;SDS011;6785;57.918;12.530;2022-10-22T02:08:57;18.23;;;12.33;;
13425;SDS011;6785;57.918;12.530;2022-10-22T02:11:27;20.50;;;13.40;;
13425;SDS011;6785;57.918;12.530;2022-10-22T02:13:56;21.43;;;12.60;;
13425;SDS011;6785;57.918;12.530;2022-10-22T02:16:30;24.20;;;13.47;;
13425;SDS011;6785;57.918;12.530;2022-10-22T02:19:02;19.30;;;12.40;;
13425;SDS011;6785;57.918;12.530;2022-10-22T02:21:35;19.77;;;12.43;;
13425;SDS011;6785;57.918;12.530;2022-10-22T02:24:02;15.10;;;11.50;;
13425;SDS011;6785;57.918;12.530;2022-10-22T02:26:31;17.00;;;11.40;;
13425;SDS011;6785;57.918;12.530;2022-10-22T02:29:05;17.53;;;11.90;;
13425;SDS011;6785;57.918;12.530;2022-10-22T02:31:40;19.73;;;12.60;;
13425;SDS011;6785;57.918;12.530;2022-10-22T02:34:13;16.97;;;12.37;;
13425;SDS011;6785;57.918;12.530;2022-10-22T02:36:46;17.17;;;11.43;;
13425;SDS011;6785;57.918;12.530;2022-10-22T02:39:16;17.63;;;12.63;;
13425;SDS011;6785;57.918;12.530;2022-10-22T02:41:45;20.47;;;12.43;;
13425;SDS011;6785;57.918;12.530;2022-10-22T02:44:13;15.83;;;11.47;;
13425;SDS011;6785;57.918;12.530;2022-10-22T02:46:41;16.40;;;11.40;;
13425;SDS011;6785;57.918;12.530;2022-10-22T02:49:09;16.20;;;12.40;;
13425;SDS011;6785;57.918;12.530;2022-10-22T02:51:36;18.43;;;12.40;;
13425;SDS011;6785;57.918;12.530;2022-10-22T02:54:03;16.93;;;11.87;;
13425;SDS011;6785;57.918;12.530;2022-10-22T02:56:31;17.60;;;12.87;;
13425;SDS011;6785;57.918;12.530;2022-10-22T02:58:58;18.10;;;12.37;;
13425;SDS011;6785;57.918;12.530;2022-10-22T03:01:25;16.77;;;12.90;;
13425;SDS011;6785;57.918;12.530;2022-10-22T03:03:53;17.33;;;11.90;;
13425;SDS011;6785;57.918;12.530;2022-10-22T03:06:20;17.93;;;12.63;;
13425;SDS011;6785;57.918;12.530;2022-10-22T03:08:47;19.33;;;12.43;;
13425;SDS011;6785;57.918;12.530;2022-10-22T03:11:14;16.40;;;11.97;;
13425;SDS011;6785;57.918;12.530;2022-10-22T03:13:41;19.87;;;13.13;;
13425;SDS011;6785;57.918;12.530;2022-10-22T03:16:08;17.07;;;11.60;;
13425;SDS011;6785;57.918;12.530;2022-10-22T03:18:35;16.40;;;11.43;;
13425;SDS011;6785;57.918;12.530;2022-10-22T03:21:05;16.23;;;11.70;;
13425;SDS011;6785;57.918;12.530;2022-10-22T03:23:37;20.83;;;12.50;;
13425;SDS011;6785;57.918;12.530;2022-10-22T03:26:07;29.97;;;12.53;;
13425;SDS011;6785;57.918;12.530;2022-10-22T03:28:37;19.60;;;12.30;;
13425;SDS011;6785;57.918;12.530;2022-10-22T03:31:06;21.83;;;12.17;;
13425;SDS011;6785;57.918;12.530;2022-10-22T03:33:34;18.67;;;12.43;;
13425;SDS011;6785;57.918;12.530;2022-10-22T03:36:01;17.63;;;12.20;;
13425;SDS011;6785;57.918;12.530;2022-10-22T03:38:29;16.93;;;11.63;;
13425;SDS011;6785;57.918;12.530;2022-10-22T03:40:56;16.10;;;11.17;;
13425;SDS011;6785;57.918;12.530;2022-10-22T03:43:24;16.73;;;11.83;;
13425;SDS011;6785;57.918;12.530;2022-10-22T03:45:51;20.27;;;12.47;;
13425;SDS011;6785;57.918;12.530;2022-10-22T03:48:18;21.67;;;12.60;;
13425;SDS011;6785;57.918;12.530;2022-10-22T03:50:45;14.27;;;11.20;;
13425;SDS011;6785;57.918;12.530;2022-10-22T03:53:12;18.57;;;11.50;;
13425;SDS011;6785;57.918;12.530;2022-10-22T03:55:40;17.70;;;11.60;;
13425;SDS011;6785;57.918;12.530;2022-10-22T03:58:07;18.27;;;11.57;;
13425;SDS011;6785;57.918;12.530;2022-10-22T04:00:34;16.90;;;11.03;;
13425;SDS011;6785;57.918;12.530;2022-10-22T04:03:02;14.30;;;11.07;;
13425;SDS011;6785;57.918;12.530;2022-10-22T04:05:30;14.53;;;10.97;;
13425;SDS011;6785;57.918;12.530;2022-10-22T04:07:58;18.00;;;10.37;;
13425;SDS011;6785;57.918;12.530;2022-10-22T04:10:25;16.77;;;10.90;;
13425;SDS011;6785;57.918;12.530;2022-10-22T04:12:53;17.10;;;11.17;;
13425;SDS011;6785;57.918;12.530;2022-10-22T04:15:20;15.30;;;10.27;;
13425;SDS011;6785;57.918;12.530;2022-10-22T04:17:50;17.53;;;10.40;;
13425;SDS011;6785;57.918;12.530;2022-10-22T04:20:17;16.40;;;10.70;;
13425;SDS011;6785;57.918;12.530;2022-10-22T04:22:44;14.97;;;10.40;;
13425;SDS011;6785;57.918;12.530;2022-10-22T04:25:11;12.87;;;9.73;;
13425;SDS011;6785;57.918;12.530;2022-10-22T04:27:38;15.30;;;10.67;;
13425;SDS011;6785;57.918;12.530;2022-10-22T04:30:07;17.40;;;9.80;;
13425;SDS011;6785;57.918;12.530;2022-10-22T04:32:35;19.77;;;11.27;;
13425;SDS011;6785;57.918;12.530;2022-10-22T04:35:03;15.70;;;10.27;;
13425;SDS011;6785;57.918;12.530;2022-10-22T04:37:30;13.40;;;10.20;;
13425;SDS011;6785;57.918;12.530;2022-10-22T04:39:58;18.77;;;9.97;;
13425;SDS011;6785;57.918;12.530;2022-10-22T04:42:25;13.67;;;10.10;;
13425;SDS011;6785;57.918;12.530;2022-10-22T04:44:52;13.80;;;9.73;;
13425;SDS011;6785;57.918;12.530;2022-10-22T04:47:20;13.30;;;10.30;;
13425;SDS011;6785;57.918;12.530;2022-10-22T04:49:47;13.43;;;9.87;;
13425;SDS011;6785;57.918;12.530;2022-10-22T04:52:14;21.57;;;10.80;;
13425;SDS011;6785;57.918;12.530;2022-10-22T04:54:41;12.47;;;10.20;;
13425;SDS011;6785;57.918;12.530;2022-10-22T04:57:08;16.33;;;10.53;;
13425;SDS011;6785;57.918;12.530;2022-10-22T04:59:35;18.27;;;11.43;;
13425;SDS011;6785;57.918;12.530;2022-10-22T05:02:02;16.63;;;10.17;;
13425;SDS011;6785;57.918;12.530;2022-10-22T05:04:30;14.10;;;10.47;;
13425;SDS011;6785;57.918;12.530;2022-10-22T05:06:58;14.07;;;10.90;;
13425;SDS011;6785;57.918;12.530;2022-10-22T05:09:25;15.97;;;11.57;;
13425;SDS011;6785;57.918;12.530;2022-10-22T05:11:52;17.50;;;10.67;;
13425;SDS011;6785;57.918;12.530;2022-10-22T05:14:20;16.23;;;11.23;;
13425;SDS011;6785;57.918;12.530;2022-10-22T05:16:49;18.30;;;11.17;;
13425;SDS011;6785;57.918;12.530;2022-10-22T05:19:18;19.60;;;11.40;;
13425;SDS011;6785;57.918;12.530;2022-10-22T05:21:50;17.90;;;11.10;;
13425;SDS011;6785;57.918;12.530;2022-10-22T05:24:18;15.30;;;10.77;;
13425;SDS011;6785;57.918;12.530;2022-10-22T05:26:47;16.50;;;10.80;;
13425;SDS011;6785;57.918;12.530;2022-10-22T05:29:15;16.00;;;10.77;;
13425;SDS011;6785;57.918;12.530;2022-10-22T05:31:42;13.97;;;10.13;;
13425;SDS011;6785;57.918;12.530;2022-10-22T05:34:09;15.70;;;9.47;;
13425;SDS011;6785;57.918;12.530;2022-10-22T05:36:37;17.07;;;10.47;;
13425;SDS011;6785;57.918;12.530;2022-10-22T05:39:05;14.00;;;9.83;;
13425;SDS011;6785;57.918;12.530;2022-10-22T05:41:33;16.60;;;10.10;;
13425;SDS011;6785;57.918;12.530;2022-10-22T05:44:00;15.43;;;9.60;;
13425;SDS011;6785;57.918;12.530;2022-10-22T05:46:28;15.00;;;9.67;;
13425;SDS011;6785;57.918;12.530;2022-10-22T05:49:01;16.87;;;11.03;;
13425;SDS011;6785;57.918;12.530;2022-10-22T05:51:33;14.23;;;9.90;;
13425;SDS011;6785;57.918;12.530;2022-10-22T05:54:03;15.07;;;9.13;;
13425;SDS011;6785;57.918;12.530;2022-10-22T05:56:35;18.20;;;10.37;;
13425;SDS011;6785;57.918;12.530;2022-10-22T05:59:02;11.23;;;9.67;;
13425;SDS011;6785;57.918;12.530;2022-10-22T06:01:30;14.47;;;10.73;;
13425;SDS011;6785;57.918;12.530;2022-10-22T06:04:00;11.87;;;9.47;;
13425;SDS011;6785;57.918;12.530;2022-10-22T06:06:30;15.43;;;9.87;;
13425;SDS011;6785;57.918;12.530;2022-10-22T06:09:02;14.87;;;10.03;;
13425;SDS011;6785;57.918;12.530;2022-10-22T06:11:33;10.97;;;9.53;;
13425;SDS011;6785;57.918;12.530;2022-10-22T06:14:01;12.47;;;9.77;;
13425;SDS011;6785;57.918;12.530;2022-10-22T06:16:29;14.97;;;9.13;;
13425;SDS011;6785;57.918;12.530;2022-10-22T06:18:57;12.77;;;9.90;;
13425;SDS011;6785;57.918;12.530;2022-10-22T06:21:26;15.60;;;10.23;;
13425;SDS011;6785;57.918;12.530;2022-10-22T06:23:54;14.47;;;10.30;;
13425;SDS011;6785;57.918;12.530;2022-10-22T06:26:21;16.20;;;10.77;;
13425;SDS011;6785;57.918;12.530;2022-10-22T06:28:50;16.07;;;11.03;;
13425;SDS011;6785;57.918;12.530;2022-10-22T06:31:18;19.00;;;10.47;;
13425;SDS011;6785;57.918;12.530;2022-10-22T06:33:45;17.80;;;11.00;;
13425;SDS011;6785;57.918;12.530;2022-10-22T06:36:13;25.43;;;15.43;;
13425;SDS011;6785;57.918;12.530;2022-10-22T06:38:43;13.30;;;10.07;;
13425;SDS011;6785;57.918;12.530;2022-10-22T06:41:11;14.97;;;10.47;;
13425;SDS011;6785;57.918;12.530;2022-10-22T06:43:40;17.27;;;11.23;;
13425;SDS011;6785;57.918;12.530;2022-10-22T06:46:12;14.73;;;10.63;;
13425;SDS011;6785;57.918;12.530;2022-10-22T06:48:41;11.60;;;9.37;;
13425;SDS011;6785;57.918;12.530;2022-10-22T06:51:09;14.30;;;10.40;;
13425;SDS011;6785;57.918;12.530;2022-10-22T06:53:37;16.73;;;11.07;;
13425;SDS011;6785;57.918;12.530;2022-10-22T06:56:05;16.00;;;10.40;;
13425;SDS011;6785;57.918;12.530;2022-10-22T06:58:34;13.60;;;9.93;;
13425;SDS011;6785;57.918;12.530;2022-10-22T07:01:02;12.00;;;9.97;;
13425;SDS011;6785;57.918;12.530;2022-10-22T07:03:32;14.90;;;10.97;;
13425;SDS011;6785;57.918;12.530;2022-10-22T07:06:00;20.00;;;11.43;;
13425;SDS011;6785;57.918;12.530;2022-10-22T07:08:29;19.73;;;11.30;;
13425;SDS011;6785;57.918;12.530;2022-10-22T07:11:03;16.50;;;10.80;;
13425;SDS011;6785;57.918;12.530;2022-10-22T07:13:32;14.10;;;10.37;;
13425;SDS011;6785;57.918;12.530;2022-10-22T07:16:00;12.23;;;10.07;;
13425;SDS011;6785;57.918;12.530;2022-10-22T07:18:28;13.33;;;10.17;;
13425;SDS011;6785;57.918;12.530;2022-10-22T07:20:56;15.53;;;10.20;;
13425;SDS011;6785;57.918;12.530;2022-10-22T07:23:23;15.67;;;9.77;;
13425;SDS011;6785;57.918;12.530;2022-10-22T07:25:51;13.27;;;9.50;;
13425;SDS011;6785;57.918;12.530;2022-10-22T07:28:18;11.73;;;9.90;;
13425;SDS011;6785;57.918;12.530;2022-10-22T07:30:45;12.67;;;9.43;;
13425;SDS011;6785;57.918;12.530;2022-10-22T07:33:12;12.43;;;9.70;;
13425;SDS011;6785;57.918;12.530;2022-10-22T07:35:40;11.17;;;8.57;;
13425;SDS011;6785;57.918;12.530;2022-10-22T07:38:08;12.60;;;9.10;;
13425;SDS011;6785;57.918;12.530;2022-10-22T07:40:35;13.83;;;8.67;;
13425;SDS011;6785;57.918;12.530;2022-10-22T07:43:03;11.40;;;8.70;;
13425;SDS011;6785;57.918;12.530;2022-10-22T07:45:30;15.67;;;10.53;;
13425;SDS011;6785;57.918;12.530;2022-10-22T07:47:57;14.70;;;9.77;;
13425;SDS011;6785;57.918;12.530;2022-10-22T07:50:25;13.77;;;9.83;;
13425;SDS011;6785;57.918;12.530;2022-10-22T07:52:53;13.07;;;9.07;;
13425;SDS011;6785;57.918;12.530;2022-10-22T07:55:21;12.17;;;8.97;;
13425;SDS011;6785;57.918;12.530;2022-10-22T07:57:48;11.47;;;9.20;;
13425;SDS011;6785;57.918;12.530;2022-10-22T08:00:15;14.47;;;10.77;;
13425;SDS011;6785;57.918;12.530;2022-10-22T08:02:43;13.67;;;9.70;;
13425;SDS011;6785;57.918;12.530;2022-10-22T08:05:10;14.00;;;10.53;;
13425;SDS011;6785;57.918;12.530;2022-10-22T08:07:38;12.47;;;9.80;;
13425;SDS011;6785;57.918;12.530;2022-10-22T08:10:05;12.40;;;9.80;;
13425;SDS011;6785;57.918;12.530;2022-10-22T08:12:36;12.87;;;9.20;;
13425;SDS011;6785;57.918;12.530;2022-10-22T08:15:04;11.13;;;8.90;;
13425;SDS011;6785;57.918;12.530;2022-10-22T08:17:32;11.73;;;8.80;;
13425;SDS011;6785;57.918;12.530;2022-10-22T08:19:59;8.63;;;7.53;;
13425;SDS011;6785;57.918;12.530;2022-10-22T08:22:26;10.40;;;8.97;;
13425;SDS011;6785;57.918;12.530;2022-10-22T08:24:53;9.37;;;8.23;;
13425;SDS011;6785;57.918;12.530;2022-10-22T08:27:20;9.13;;;8.13;;
13425;SDS011;6785;57.918;12.530;2022-10-22T08:29:49;9.13;;;7.73;;
13425;SDS011;6785;57.918;12.530;2022-10-22T08:32:16;8.37;;;7.03;;
13425;SDS011;6785;57.918;12.530;2022-10-22T08:34:43;7.00;;;6.23;;
13425;SDS011;6785;57.918;12.530;2022-10-22T08:37:10;6.73;;;5.43;;
13425;SDS011;6785;57.918;12.530;2022-10-22T08:39:38;4.57;;;4.17;;
13425;SDS011;6785;57.918;12.530;2022-10-22T08:42:08;4.23;;;3.83;;
13425;SDS011;6785;57.918;12.530;2022-10-22T08:45:05;5.40;;;4.33;;
13425;SDS011;6785;57.918;12.530;2022-10-22T08:47:46;4.77;;;4.37;;
13425;SDS011;6785;57.918;12.530;2022-10-22T08:50:32;4.93;;;4.47;;
13425;SDS011;6785;57.918;12.530;2022-10-22T08:53:05;5.13;;;4.63;;
13425;SDS011;6785;57.918;12.530;2022-10-22T08:55:38;5.37;;;4.87;;
13425;SDS011;6785;57.918;12.530;2022-10-22T08:58:09;6.00;;;5.40;;
13425;SDS011;6785;57.918;12.530;2022-10-22T09:00:49;8.83;;;5.87;;
13425;SDS011;6785;57.918;12.530;2022-10-22T09:03:29;6.00;;;5.40;;
13425;SDS011;6785;57.918;12.530;2022-10-22T09:06:08;5.07;;;4.50;;
13425;SDS011;6785;57.918;12.530;2022-10-22T09:08:40;5.10;;;4.60;;
13425;SDS011;6785;57.918;12.530;2022-10-22T09:11:20;5.67;;;3.57;;
13425;SDS011;6785;57.918;12.530;2022-10-22T09:13:51;3.97;;;3.67;;
13425;SDS011;6785;57.918;12.530;2022-10-22T09:16:24;3.77;;;3.40;;
13425;SDS011;6785;57.918;12.530;2022-10-22T09:19:08;4.60;;;4.10;;
13425;SDS011;6785;57.918;12.530;2022-10-22T09:21:49;4.10;;;3.70;;
13425;SDS011;6785;57.918;12.530;2022-10-22T09:24:27;3.73;;;3.33;;
13425;SDS011;6785;57.918;12.530;2022-10-22T09:27:05;3.60;;;3.10;;
13425;SDS011;6785;57.918;12.530;2022-10-22T09:29:38;3.23;;;2.93;;
13425;SDS011;6785;57.918;12.530;2022-10-22T09:32:07;3.10;;;2.67;;
13425;SDS011;6785;57.918;12.530;2022-10-22T09:34:34;3.03;;;2.73;;
13425;SDS011;6785;57.918;12.530;2022-10-22T09:37:04;3.27;;;2.77;;
13425;SDS011;6785;57.918;12.530;2022-10-22T09:39:35;3.07;;;2.73;;
13425;SDS011;6785;57.918;12.530;2022-10-22T09:42:05;3.30;;;2.60;;
13425;SDS011;6785;57.918;12.530;2022-10-22T09:44:33;4.43;;;2.90;;
13425;SDS011;6785;57.918;12.530;2022-10-22T09:47:03;3.07;;;2.80;;
13425;SDS011;6785;57.918;12.530;2022-10-22T09:49:33;3.00;;;2.70;;
13425;SDS011;6785;57.918;12.530;2022-10-22T09:52:01;3.30;;;3.00;;
13425;SDS011;6785;57.918;12.530;2022-10-22T09:54:47;3.70;;;2.80;;
13425;SDS011;6785;57.918;12.530;2022-10-22T09:57:20;3.33;;;3.03;;
13425;SDS011;6785;57.918;12.530;2022-10-22T09:59:49;3.10;;;2.80;;
13425;SDS011;6785;57.918;12.530;2022-10-22T10:02:19;3.67;;;2.90;;
13425;SDS011;6785;57.918;12.530;2022-10-22T10:04:52;7.03;;;3.00;;
13425;SDS011;6785;57.918;12.530;2022-10-22T10:07:25;3.33;;;2.87;;
13425;SDS011;6785;57.918;12.530;2022-10-22T10:09:56;2.87;;;2.57;;
13425;SDS011;6785;57.918;12.530;2022-10-22T10:12:31;3.40;;;3.10;;
13425;SDS011;6785;57.918;12.530;2022-10-22T10:15:09;3.77;;;2.63;;
13425;SDS011;6785;57.918;12.530;2022-10-22T10:17:47;5.27;;;2.63;;
13425;SDS011;6785;57.918;12.530;2022-10-22T10:20:28;3.30;;;2.60;;
13425;SDS011;6785;57.918;12.530;2022-10-22T10:23:08;2.77;;;2.57;;
13425;SDS011;6785;57.918;12.530;2022-10-22T10:25:48;5.20;;;2.80;;
13425;SDS011;6785;57.918;12.530;2022-10-22T10:28:32;3.83;;;2.80;;
13425;SDS011;6785;57.918;12.530;2022-10-22T10:31:23;3.80;;;2.90;;
13425;SDS011;6785;57.918;12.530;2022-10-22T10:34:07;3.03;;;2.73;;
13425;SDS011;6785;57.918;12.530;2022-10-22T10:36:53;3.23;;;2.83;;
13425;SDS011;6785;57.918;12.530;2022-10-22T10:39:39;3.10;;;2.80;;
13425;SDS011;6785;57.918;12.530;2022-10-22T10:42:22;2.93;;;2.70;;
13425;SDS011;6785;57.918;12.530;2022-10-22T10:45:01;3.50;;;2.50;;
13425;SDS011;6785;57.918;12.530;2022-10-22T10:47:53;2.90;;;2.70;;
13425;SDS011;6785;57.918;12.530;2022-10-22T10:51:09;2.97;;;2.70;;
13425;SDS011;6785;57.918;12.530;2022-10-22T10:54:03;3.70;;;2.83;;
13425;SDS011;6785;57.918;12.530;2022-10-22T10:56:46;2.57;;;2.37;;
13425;SDS011;6785;57.918;12.530;2022-10-22T10:59:21;3.73;;;2.80;;
13425;SDS011;6785;57.918;12.530;2022-10-22T11:02:14;4.87;;;3.07;;
13425;SDS011;6785;57.918;12.530;2022-10-22T11:05:36;2.87;;;2.67;;
13425;SDS011;6785;57.918;12.530;2022-10-22T11:08:12;2.80;;;2.50;;
13425;SDS011;6785;57.918;12.530;2022-10-22T11:10:48;3.10;;;2.80;;
13425;SDS011;6785;57.918;12.530;2022-10-22T11:13:21;3.00;;;2.80;;
13425;SDS011;6785;57.918;12.530;2022-10-22T11:15:59;4.13;;;2.30;;
13425;SDS011;6785;57.918;12.530;2022-10-22T11:18:35;6.20;;;2.83;;
13425;SDS011;6785;57.918;12.530;2022-10-22T11:24:03;3.30;;;3.00;;
13425;SDS011;6785;57.918;12.530;2022-10-22T11:26:44;4.30;;;3.03;;
13425;SDS011;6785;57.918;12.530;2022-10-22T11:29:16;4.00;;;2.77;;
13425;SDS011;6785;57.918;12.530;2022-10-22T11:31:49;3.00;;;2.70;;
13425;SDS011;6785;57.918;12.530;2022-10-22T11:34:21;2.77;;;2.57;;
13425;SDS011;6785;57.918;12.530;2022-10-22T11:36:53;3.23;;;2.90;;
13425;SDS011;6785;57.918;12.530;2022-10-22T11:39:27;2.80;;;2.50;;
13425;SDS011;6785;57.918;12.530;2022-10-22T11:42:02;2.30;;;2.10;;
13425;SDS011;6785;57.918;12.530;2022-10-22T11:44:31;2.60;;;2.40;;
13425;SDS011;6785;57.918;12.530;2022-10-22T11:47:16;2.37;;;2.17;;
13425;SDS011;6785;57.918;12.530;2022-10-22T11:49:54;2.70;;;2.20;;
13425;SDS011;6785;57.918;12.530;2022-10-22T11:52:36;2.70;;;2.50;;
13425;SDS011;6785;57.918;12.530;2022-10-22T11:58:00;2.00;;;1.90;;
13425;SDS011;6785;57.918;12.530;2022-10-22T12:00:48;2.23;;;2.03;;
13425;SDS011;6785;57.918;12.530;2022-10-22T12:03:16;2.40;;;2.20;;
13425;SDS011;6785;57.918;12.530;2022-10-22T12:06:01;2.20;;;2.00;;
13425;SDS011;6785;57.918;12.530;2022-10-22T12:08:45;2.23;;;2.03;;
13425;SDS011;6785;57.918;12.530;2022-10-22T12:11:21;2.70;;;2.50;;
13425;SDS011;6785;57.918;12.530;2022-10-22T12:13:57;2.60;;;2.40;;
13425;SDS011;6785;57.918;12.530;2022-10-22T12:16:42;3.40;;;2.50;;
13425;SDS011;6785;57.918;12.530;2022-10-22T12:19:13;4.43;;;2.23;;
13425;SDS011;6785;57.918;12.530;2022-10-22T12:21:45;3.57;;;2.67;;
13425;SDS011;6785;57.918;12.530;2022-10-22T12:24:19;3.10;;;2.37;;
13425;SDS011;6785;57.918;12.530;2022-10-22T12:26:48;3.77;;;2.50;;
13425;SDS011;6785;57.918;12.530;2022-10-22T12:29:18;3.50;;;2.60;;
13425;SDS011;6785;57.918;12.530;2022-10-22T12:31:49;4.97;;;2.27;;
13425;SDS011;6785;57.918;12.530;2022-10-22T12:34:17;4.33;;;2.60;;
13425;SDS011;6785;57.918;12.530;2022-10-22T12:36:50;7.30;;;2.63;;
13425;SDS011;6785;57.918;12.530;2022-10-22T12:39:20;5.73;;;2.53;;
13425;SDS011;6785;57.918;12.530;2022-10-22T12:41:51;3.07;;;2.77;;
13425;SDS011;6785;57.918;12.530;2022-10-22T12:44:21;3.43;;;2.50;;
13425;SDS011;6785;57.918;12.530;2022-10-22T12:46:48;2.97;;;2.77;;
13425;SDS011;6785;57.918;12.530;2022-10-22T12:49:18;2.80;;;2.60;;
13425;SDS011;6785;57.918;12.530;2022-10-22T12:51:48;3.20;;;2.83;;
13425;SDS011;6785;57.918;12.530;2022-10-22T12:54:22;2.80;;;2.47;;
13425;SDS011;6785;57.918;12.530;2022-10-22T12:56:52;3.37;;;3.07;;
13425;SDS011;6785;57.918;12.530;2022-10-22T12:59:24;5.23;;;3.00;;
13425;SDS011;6785;57.918;12.530;2022-10-22T13:01:54;4.73;;;3.50;;
13425;SDS011;6785;57.918;12.530;2022-10-22T13:04:32;4.63;;;3.03;;
13425;SDS011;6785;57.918;12.530;2022-10-22T13:09:47;6.07;;;3.50;;
13425;SDS011;6785;57.918;12.530;2022-10-22T13:12:24;4.20;;;3.80;;
13425;SDS011;6785;57.918;12.530;2022-10-22T13:14:54;5.80;;;3.87;;
13425;SDS011;6785;57.918;12.530;2022-10-22T13:17:36;5.13;;;3.70;;
13425;SDS011;6785;57.918;12.530;2022-10-22T13:20:15;4.17;;;3.70;;
13425;SDS011;6785;57.918;12.530;2022-10-22T13:22:52;8.53;;;4.23;;
13425;SDS011;6785;57.918;12.530;2022-10-22T13:25:24;4.10;;;3.50;;
13425;SDS011;6785;57.918;12.530;2022-10-22T13:27:54;3.87;;;3.47;;
13425;SDS011;6785;57.918;12.530;2022-10-22T13:30:26;3.90;;;3.50;;
13425;SDS011;6785;57.918;12.530;2022-10-22T13:32:56;3.50;;;3.20;;
13425;SDS011;6785;57.918;12.530;2022-10-22T13:35:27;5.43;;;3.77;;
13425;SDS011;6785;57.918;12.530;2022-10-22T13:37:59;5.63;;;3.40;;
13425;SDS011;6785;57.918;12.530;2022-10-22T13:40:27;4.03;;;3.27;;
13425;SDS011;6785;57.918;12.530;2022-10-22T13:42:54;3.77;;;3.47;;
13425;SDS011;6785;57.918;12.530;2022-10-22T13:45:21;4.43;;;3.33;;
13425;SDS011;6785;57.918;12.530;2022-10-22T13:47:51;4.33;;;3.23;;
13425;SDS011;6785;57.918;12.530;2022-10-22T13:50:21;4.77;;;3.43;;
13425;SDS011;6785;57.918;12.530;2022-10-22T13:52:48;5.87;;;4.37;;
13425;SDS011;6785;57.918;12.530;2022-10-22T13:55:18;4.37;;;3.73;;
13425;SDS011;6785;57.918;12.530;2022-10-22T13:57:50;7.97;;;3.97;;
13425;SDS011;6785;57.918;12.530;2022-10-22T14:03:31;4.87;;;3.07;;
13425;SDS011;6785;57.918;12.530;2022-10-22T14:06:03;6.87;;;3.70;;
13425;SDS011;6785;57.918;12.530;2022-10-22T14:08:38;4.03;;;3.27;;
13425;SDS011;6785;57.918;12.530;2022-10-22T14:11:05;3.93;;;3.23;;
13425;SDS011;6785;57.918;12.530;2022-10-22T14:13:35;6.50;;;3.47;;
13425;SDS011;6785;57.918;12.530;2022-10-22T14:16:02;3.97;;;3.30;;
13425;SDS011;6785;57.918;12.530;2022-10-22T14:18:33;6.13;;;3.30;;
13425;SDS011;6785;57.918;12.530;2022-10-22T14:21:01;4.10;;;3.23;;
13425;SDS011;6785;57.918;12.530;2022-10-22T14:23:32;6.27;;;3.83;;
13425;SDS011;6785;57.918;12.530;2022-10-22T14:26:01;4.17;;;3.77;;
13425;SDS011;6785;57.918;12.530;2022-10-22T14:28:31;3.83;;;3.43;;
13425;SDS011;6785;57.918;12.530;2022-10-22T14:30:59;4.63;;;4.00;;
13425;SDS011;6785;57.918;12.530;2022-10-22T14:33:27;4.80;;;4.30;;
13425;SDS011;6785;57.918;12.530;2022-10-22T14:35:58;6.07;;;4.70;;
13425;SDS011;6785;57.918;12.530;2022-10-22T14:38:26;6.90;;;4.70;;
13425;SDS011;6785;57.918;12.530;2022-10-22T14:40:54;5.83;;;4.53;;
13425;SDS011;6785;57.918;12.530;2022-10-22T14:43:22;7.03;;;5.10;;
13425;SDS011;6785;57.918;12.530;2022-10-22T14:45:54;5.20;;;4.60;;
13425;SDS011;6785;57.918;12.530;2022-10-22T14:48:21;5.37;;;4.87;;
13425;SDS011;6785;57.918;12.530;2022-10-22T14:50:48;6.23;;;5.13;;
13425;SDS011;6785;57.918;12.530;2022-10-22T14:53:16;5.90;;;4.67;;
13425;SDS011;6785;57.918;12.530;2022-10-22T14:55:44;5.37;;;4.37;;
13425;SDS011;6785;57.918;12.530;2022-10-22T14:58:13;5.67;;;4.60;;
13425;SDS011;6785;57.918;12.530;2022-10-22T15:00:40;7.13;;;4.97;;
13425;SDS011;6785;57.918;12.530;2022-10-22T15:03:08;7.00;;;4.87;;
13425;SDS011;6785;57.918;12.530;2022-10-22T15:05:38;7.23;;;4.57;;
13425;SDS011;6785;57.918;12.530;2022-10-22T15:08:08;6.07;;;4.67;;
13425;SDS011;6785;57.918;12.530;2022-10-22T15:10:36;9.70;;;4.60;;
13425;SDS011;6785;57.918;12.530;2022-10-22T15:13:04;5.67;;;4.53;;
13425;SDS011;6785;57.918;12.530;2022-10-22T15:15:31;7.93;;;4.53;;